Armstrong, Missouri
Current Conditions -  °F | °C
As of 9:35 PM on Thursday 18 Dec 2014 (Local Time) from KVER Reporting Station
Overcast Overcast  
Wind Chill: 32°   Ceiling: 800
Heat Index: 32°   Visibility: 7mi
Dew Point: 32°   Wind: 0mph
Humidity: 97%   Direction: NA
Pressure: 30.27"   Gusts: NA
Location:  39.27°N, 92.7°W
Report Text: KVER 190335Z AUTO 00000KT 7SM OVC008 00/00 A3027 RMK AO2 T00021002
Loading
Personal Weather Stations






























Interactive Weather Map New forecast layout! Learn more

10-Day Weather Forecast

Advertisements
Track Severe Weather on mobile